Time;durP1;ratioP1;P1;durP2;ratioP2;P2;SDS_P1;SDS_P2;PMS_P1;PMS_P2;Temp;Humidity;BMP_temperature;BMP_pressure;BME280_temperature;BME280_humidity;BME280_pressure;Samples;Min_cycle;Max_cycle;Signal;HPM_P1;HPM_P2
2023/01/10 00:00:33;;;;;;;1.58;0.57;;;4.00;99.90;;;;;;5038816;28;20090;-71
2023/01/10 00:03:00;;;;;;;0.93;0.50;;;4.00;99.90;;;;;;5031578;28;20026;-71
2023/01/10 00:05:26;;;;;;;1.15;0.57;;;4.00;99.90;;;;;;5035245;28;20029;-71
2023/01/10 00:07:52;;;;;;;0.95;0.63;;;3.90;99.90;;;;;;5034446;28;20040;-72
2023/01/10 00:10:18;;;;;;;1.08;0.60;;;4.30;99.90;;;;;;5028106;28;20096;-71
2023/01/10 00:15:30;;;;;;;0.87;0.47;;;4.30;99.90;;;;;;5036721;28;20043;-71
2023/01/10 00:17:56;;;;;;;1.75;0.60;;;4.20;99.90;;;;;;5049155;28;20518;-71
2023/01/10 00:20:21;;;;;;;1.38;0.60;;;4.10;99.90;;;;;;5046687;28;20120;-71
2023/01/10 00:22:49;;;;;;;0.82;0.43;;;4.20;99.90;;;;;;5029441;28;20049;-71
2023/01/10 00:25:15;;;;;;;3.17;0.75;;;4.40;99.90;;;;;;5036272;28;20497;-71
2023/01/10 00:27:42;;;;;;;1.00;0.50;;;4.60;99.90;;;;;;5036246;28;20034;-71
2023/01/10 00:30:12;;;;;;;1.48;0.57;;;4.40;99.90;;;;;;5035343;28;20489;-71
2023/01/10 00:32:43;;;;;;;0.93;0.38;;;4.40;99.90;;;;;;5035848;28;20455;-71
2023/01/10 00:35:10;;;;;;;1.67;0.80;;;4.10;99.90;;;;;;5047143;28;20059;-71
2023/01/10 00:37:36;;;;;;;1.00;0.40;;;3.90;99.90;;;;;;5033919;28;20042;-71
2023/01/10 00:40:02;;;;;;;0.35;0.30;;;3.90;99.90;;;;;;5028999;28;20497;-71
2023/01/10 00:45:21;;;;;;;1.00;0.32;;;4.60;99.90;;;;;;5028634;28;20041;-71
2023/01/10 00:47:47;;;;;;;2.65;0.40;;;4.50;99.90;;;;;;5040762;28;20146;-71
2023/01/10 00:50:13;;;;;;;2.58;0.30;;;4.50;99.90;;;;;;5036632;28;20033;-71
2023/01/10 00:52:39;;;;;;;3.95;0.77;;;4.30;99.90;;;;;;5044954;28;20525;-71
2023/01/10 00:55:05;;;;;;;1.65;0.63;;;4.20;99.90;;;;;;5048415;28;20036;-71
2023/01/10 00:57:31;;;;;;;1.85;0.80;;;4.10;99.90;;;;;;5041231;28;20043;-71
2023/01/10 00:59:57;;;;;;;1.17;0.55;;;4.70;99.90;;;;;;5039219;28;20025;-71
2023/01/10 01:02:23;;;;;;;0.85;0.52;;;4.70;99.90;;;;;;5032758;28;20053;-71
2023/01/10 01:04:48;;;;;;;1.08;0.38;;;4.50;99.90;;;;;;5043013;28;20435;-71
2023/01/10 01:07:14;;;;;;;1.50;0.50;;;4.30;99.90;;;;;;5034013;28;20052;-71
2023/01/10 01:10:25;;;;;;;4.40;0.77;;;4.40;99.90;;;;;;5033868;28;20120;-71
2023/01/10 01:12:25;;;;;;;0.43;0.22;;;4.10;99.90;;;;;;5035048;28;20666;-71
2023/01/10 01:14:51;;;;;;;0.88;0.32;;;4.20;99.90;;;;;;5037121;28;20071;-71
2023/01/10 01:17:17;;;;;;;0.88;0.30;;;4.40;99.90;;;;;;5037229;28;20072;-71
2023/01/10 01:19:43;;;;;;;2.63;0.35;;;4.50;99.90;;;;;;5043888;28;20120;-71
2023/01/10 01:22:09;;;;;;;0.90;0.30;;;4.40;99.90;;;;;;5039434;28;20119;-71
2023/01/10 01:24:34;;;;;;;0.73;0.40;;;4.60;99.90;;;;;;5046840;28;20433;-72
2023/01/10 01:27:00;;;;;;;0.60;0.47;;;4.40;99.90;;;;;;5040965;28;20029;-71
2023/01/10 01:29:26;;;;;;;0.30;0.30;;;4.30;99.90;;;;;;5028875;28;20033;-71
2023/01/10 01:31:51;;;;;;;0.22;0.20;;;4.10;99.90;;;;;;5027619;28;20041;-71
2023/01/10 01:34:17;;;;;;;0.57;0.30;;;4.20;99.90;;;;;;5033816;28;20083;-71
2023/01/10 01:36:42;;;;;;;1.88;1.02;;;4.00;99.90;;;;;;5037583;28;20033;-71
2023/01/10 01:39:08;;;;;;;2.97;0.68;;;4.30;99.90;;;;;;5047587;28;20021;-71
2023/01/10 01:44:19;;;;;;;0.43;0.27;;;4.00;99.90;;;;;;5036016;28;20042;-71
2023/01/10 01:46:50;;;;;;;0.63;0.30;;;4.50;99.90;;;;;;5043297;28;20083;-71
2023/01/10 01:49:22;;;;;;;0.93;0.30;;;4.70;99.90;;;;;;5033172;28;20036;-71
2023/01/10 01:51:55;;;;;;;0.85;0.40;;;4.80;99.90;;;;;;5029349;28;20037;-71
2023/01/10 01:54:21;;;;;;;0.90;0.50;;;4.50;99.90;;;;;;5031651;28;20479;-71
2023/01/10 01:56:53;;;;;;;0.35;0.20;;;4.20;99.90;;;;;;5035694;28;20113;-71
2023/01/10 01:59:26;;;;;;;0.80;0.22;;;4.00;99.90;;;;;;5038207;28;20037;-71
2023/01/10 02:01:56;;;;;;;0.47;0.32;;;3.80;99.90;;;;;;5036200;28;20033;-71
2023/01/10 02:04:28;;;;;;;0.60;0.30;;;3.60;99.90;;;;;;5041752;28;20431;-71
2023/01/10 02:06:55;;;;;;;0.52;0.35;;;4.30;99.90;;;;;;5041495;28;20025;-71
2023/01/10 02:09:27;;;;;;;0.30;0.30;;;4.50;99.90;;;;;;5035734;28;20084;-71
2023/01/10 02:11:54;;;;;;;0.28;0.20;;;4.70;99.90;;;;;;5039208;28;20083;-71
2023/01/10 02:14:23;;;;;;;0.85;0.30;;;4.40;99.90;;;;;;5031441;28;20026;-71
2023/01/10 02:16:49;;;;;;;0.52;0.20;;;4.40;99.90;;;;;;5035598;28;20037;-71
2023/01/10 02:19:49;;;;;;;1.55;0.35;;;4.50;99.90;;;;;;5045982;28;20021;-71
2023/01/10 02:22:34;;;;;;;0.98;0.20;;;4.40;99.90;;;;;;5039089;28;20131;-71
2023/01/10 02:25:29;;;;;;;0.80;0.25;;;4.30;99.90;;;;;;5047001;28;20025;-71
2023/01/10 02:28:13;;;;;;;0.70;0.30;;;4.10;99.90;;;;;;5040132;28;20025;-71
2023/01/10 02:30:47;;;;;;;0.65;0.20;;;4.00;99.90;;;;;;5033479;28;20099;-71
2023/01/10 02:33:28;;;;;;;1.65;0.43;;;4.10;99.90;;;;;;5041815;28;20535;-71
2023/01/10 02:36:19;;;;;;;0.32;0.20;;;4.10;99.90;;;;;;5039957;28;20491;-71
2023/01/10 02:39:23;;;;;;;1.52;0.50;;;3.90;99.90;;;;;;5038605;28;20053;-71
2023/01/10 02:42:00;;;;;;;0.45;0.20;;;4.10;99.90;;;;;;5032391;28;20022;-71
2023/01/10 02:44:46;;;;;;;0.82;0.30;;;3.70;99.90;;;;;;5044972;28;20572;-71
2023/01/10 02:47:13;;;;;;;0.75;0.30;;;3.90;99.90;;;;;;5038458;28;20383;-71
2023/01/10 02:49:47;;;;;;;0.77;0.28;;;3.60;99.90;;;;;;5040153;28;20033;-71
2023/01/10 02:52:20;;;;;;;0.55;0.28;;;3.50;99.90;;;;;;5030937;28;20357;-71
2023/01/10 02:54:47;;;;;;;0.73;0.35;;;3.70;99.90;;;;;;5037756;28;20021;-71
2023/01/10 02:57:18;;;;;;;0.38;0.15;;;3.50;99.90;;;;;;5038153;28;20488;-71
2023/01/10 03:00:23;;;;;;;1.65;0.75;;;3.50;99.90;;;;;;5042179;28;20044;-71
2023/01/10 03:03:00;;;;;;;2.80;0.40;;;3.70;99.90;;;;;;5037595;28;20037;-71
2023/01/10 03:05:58;;;;;;;0.77;0.20;;;3.70;99.90;;;;;;5044778;28;20045;-71
2023/01/10 03:08:48;;;;;;;0.65;0.40;;;4.00;99.90;;;;;;5036091;28;20063;-71
2023/01/10 03:11:14;;;;;;;0.68;0.30;;;4.10;99.90;;;;;;5038597;28;20041;-71
2023/01/10 03:13:56;;;;;;;0.38;0.10;;;4.20;99.90;;;;;;5051143;28;20135;-71
2023/01/10 03:16:27;;;;;;;1.52;0.47;;;4.10;99.90;;;;;;5039906;28;20041;-71
2023/01/10 03:19:14;;;;;;;0.20;0.10;;;4.00;99.90;;;;;;5037582;28;20039;-71
2023/01/10 03:21:43;;;;;;;0.43;0.15;;;4.00;99.90;;;;;;5032424;28;20045;-71
2023/01/10 03:24:34;;;;;;;0.35;0.32;;;3.80;99.90;;;;;;5050513;28;20040;-71
2023/01/10 03:27:18;;;;;;;0.75;0.30;;;3.90;99.90;;;;;;5036967;28;20063;-71
2023/01/10 03:30:00;;;;;;;0.95;0.30;;;4.00;99.90;;;;;;5043740;28;20021;-71
2023/01/10 03:32:29;;;;;;;0.60;0.20;;;3.80;99.90;;;;;;5030638;28;20103;-71
2023/01/10 03:34:57;;;;;;;0.30;0.17;;;3.50;99.90;;;;;;5030569;28;20502;-71
2023/01/10 03:37:51;;;;;;;1.00;0.40;;;3.70;99.90;;;;;;5039656;28;20506;-71
2023/01/10 03:40:29;;;;;;;0.20;0.13;;;3.70;99.90;;;;;;5048424;28;20083;-71
2023/01/10 03:46:34;;;;;;;1.65;0.20;;;4.20;99.90;;;;;;5011446;28;20053;-71
2023/01/10 03:49:04;;;;;;;1.13;0.80;;;4.30;99.90;;;;;;5011850;28;20029;-71
2023/01/10 03:51:31;;;;;;;0.65;0.10;;;4.20;99.90;;;;;;5027883;28;20442;-71
2023/01/10 03:54:00;;;;;;;0.80;0.40;;;4.70;99.30;;;;;;5044400;28;20025;-71
2023/01/10 03:56:25;;;;;;;0.88;0.30;;;5.10;98.80;;;;;;5039963;28;20487;-71
2023/01/10 03:58:51;;;;;;;0.95;0.22;;;4.10;99.90;;;;;;5036862;28;20024;-71
2023/01/10 04:01:18;;;;;;;0.52;0.20;;;3.50;99.90;;;;;;5046546;28;20036;-71
2023/01/10 04:03:43;;;;;;;0.20;0.10;;;3.70;99.90;;;;;;5038090;28;20116;-71
2023/01/10 04:06:10;;;;;;;0.38;0.20;;;4.40;99.90;;;;;;5034633;28;20246;-71
2023/01/10 04:08:36;;;;;;;0.13;0.05;;;4.10;99.90;;;;;;5030059;28;20032;-71
2023/01/10 04:11:01;;;;;;;1.70;0.20;;;3.80;99.90;;;;;;5034940;28;20041;-71
2023/01/10 04:13:27;;;;;;;0.30;0.10;;;3.80;99.90;;;;;;5032350;28;20033;-71
2023/01/10 04:15:52;;;;;;;0.43;0.10;;;3.90;99.90;;;;;;5024773;28;20033;-71
2023/01/10 04:18:18;;;;;;;0.20;0.10;;;3.90;99.90;;;;;;5033076;28;20051;-71
2023/01/10 04:20:44;;;;;;;0.28;0.10;;;3.90;99.90;;;;;;5026308;28;20053;-71
2023/01/10 04:23:10;;;;;;;0.43;0.20;;;3.60;99.90;;;;;;5028750;28;20049;-71
2023/01/10 04:25:35;;;;;;;0.20;0.10;;;3.70;99.90;;;;;;5036592;28;20306;-71
2023/01/10 04:28:01;;;;;;;0.15;0.10;;;3.80;99.90;;;;;;5035917;28;20031;-71
2023/01/10 04:30:27;;;;;;;0.60;0.13;;;4.30;99.90;;;;;;5029178;28;20060;-71
2023/01/10 04:32:52;;;;;;;0.22;0.20;;;4.10;99.90;;;;;;5032511;28;20097;-71
2023/01/10 04:35:18;;;;;;;0.30;0.20;;;4.10;99.90;;;;;;5024671;28;20033;-71
2023/01/10 04:37:44;;;;;;;0.50;0.10;;;4.30;99.90;;;;;;5024671;28;20040;-71
2023/01/10 04:40:10;;;;;;;0.43;0.20;;;4.40;99.90;;;;;;5038298;28;20024;-71
2023/01/10 04:42:36;;;;;;;0.15;0.10;;;4.60;99.10;;;;;;5028018;28;20467;-71
2023/01/10 04:45:02;;;;;;;0.32;0.20;;;4.50;99.60;;;;;;5032528;28;20040;-71
2023/01/10 04:47:27;;;;;;;0.45;0.10;;;4.60;99.40;;;;;;5031958;28;20060;-71
2023/01/10 04:49:53;;;;;;;0.60;0.20;;;4.20;99.90;;;;;;5031004;28;20414;-72
2023/01/10 04:52:19;;;;;;;0.22;0.10;;;4.50;99.20;;;;;;5025410;28;20040;-71
2023/01/10 04:54:44;;;;;;;0.40;0.17;;;4.30;99.90;;;;;;5033712;28;20056;-71
2023/01/10 04:57:10;;;;;;;0.70;0.30;;;3.90;99.90;;;;;;5033383;28;20121;-71
2023/01/10 04:59:36;;;;;;;0.30;0.15;;;4.00;99.90;;;;;;5032324;28;20035;-71
2023/01/10 05:02:01;;;;;;;2.67;0.32;;;3.90;99.90;;;;;;5032228;28;20034;-71
2023/01/10 05:04:27;;;;;;;0.57;0.10;;;4.10;99.90;;;;;;5023920;28;20067;-71
2023/01/10 05:06:53;;;;;;;0.40;0.35;;;4.40;99.50;;;;;;5032925;28;20052;-70
2023/01/10 05:09:18;;;;;;;1.63;0.10;;;4.60;99.00;;;;;;5026414;28;20041;-71
2023/01/10 05:11:44;;;;;;;0.08;0.08;;;4.50;99.30;;;;;;5033366;28;20048;-71
2023/01/10 05:14:10;;;;;;;0.43;0.10;;;4.30;99.70;;;;;;5029155;28;20029;-71
2023/01/10 05:16:35;;;;;;;0.45;0.10;;;3.80;99.90;;;;;;5022628;28;20711;-71
2023/01/10 05:19:01;;;;;;;0.22;0.20;;;3.70;99.90;;;;;;5031339;28;20025;-71
2023/01/10 05:21:27;;;;;;;0.15;0.10;;;4.00;99.90;;;;;;5040297;28;20063;-71
2023/01/10 05:23:52;;;;;;;0.32;0.00;;;4.30;99.60;;;;;;5034352;28;20382;-71
2023/01/10 05:26:21;;;;;;;0.35;0.08;;;4.80;98.50;;;;;;5033267;28;20056;-71
2023/01/10 05:28:47;;;;;;;0.22;0.13;;;4.50;99.20;;;;;;5028897;28;20025;-71
2023/01/10 05:31:16;;;;;;;0.45;0.10;;;4.50;99.40;;;;;;5038610;28;20036;-71
2023/01/10 05:33:50;;;;;;;0.00;0.00;;;4.10;99.90;;;;;;5032687;28;20032;-71
2023/01/10 05:36:17;;;;;;;0.20;0.00;;;4.30;99.70;;;;;;5026603;28;20128;-71
2023/01/10 05:38:42;;;;;;;0.52;0.25;;;4.40;99.40;;;;;;5023408;28;20059;-71
2023/01/10 05:41:08;;;;;;;0.05;0.05;;;4.50;99.40;;;;;;5025260;28;20028;-71
2023/01/10 05:43:34;;;;;;;0.10;0.10;;;4.20;99.50;;;;;;5025370;28;20029;-71
2023/01/10 05:46:00;;;;;;;0.00;0.00;;;3.90;99.90;;;;;;5035963;28;20055;-71
2023/01/10 05:48:25;;;;;;;0.45;0.20;;;3.80;99.90;;;;;;5029576;28;20032;-71
2023/01/10 05:50:51;;;;;;;0.22;0.15;;;3.80;99.90;;;;;;5030673;28;20029;-71
2023/01/10 05:53:18;;;;;;;0.38;0.00;;;3.60;99.90;;;;;;5032121;28;20116;-71
2023/01/10 05:55:50;;;;;;;1.45;0.20;;;3.50;99.90;;;;;;5037050;28;20025;-71
2023/01/10 05:58:16;;;;;;;0.63;0.28;;;3.60;99.90;;;;;;5030811;28;20033;-71
2023/01/10 06:00:42;;;;;;;0.30;0.00;;;4.30;99.40;;;;;;5042010;28;20024;-71
2023/01/10 06:03:07;;;;;;;0.65;0.20;;;4.10;99.50;;;;;;5028312;28;20079;-71
2023/01/10 06:05:33;;;;;;;0.03;0.00;;;4.10;99.70;;;;;;5030900;28;20091;-71
2023/01/10 06:07:59;;;;;;;0.25;0.00;;;4.00;99.90;;;;;;5035531;28;20025;-71
2023/01/10 06:10:24;;;;;;;0.55;0.17;;;4.10;99.40;;;;;;5037021;28;20029;-71
2023/01/10 06:12:50;;;;;;;0.52;0.13;;;4.20;99.30;;;;;;5025201;28;20045;-71
2023/01/10 06:15:16;;;;;;;0.20;0.10;;;4.30;99.30;;;;;;5039333;28;20025;-71
2023/01/10 06:17:43;;;;;;;0.13;0.10;;;4.10;99.70;;;;;;5033024;28;20072;-71
2023/01/10 06:20:10;;;;;;;0.13;0.13;;;4.20;99.50;;;;;;5031521;28;20033;-71
2023/01/10 06:22:38;;;;;;;1.40;0.28;;;4.50;98.70;;;;;;5031488;28;20125;-71
2023/01/10 06:25:04;;;;;;;0.30;0.20;;;4.10;99.80;;;;;;5040234;28;20029;-71
2023/01/10 06:27:30;;;;;;;0.28;0.20;;;4.40;98.90;;;;;;5033687;28;20111;-70
2023/01/10 06:29:55;;;;;;;0.63;0.17;;;4.90;98.00;;;;;;5027422;28;20484;-70
2023/01/10 06:32:21;;;;;;;0.22;0.15;;;4.90;97.90;;;;;;5027772;28;20421;-72
2023/01/10 06:34:47;;;;;;;0.47;0.10;;;5.00;97.80;;;;;;5031611;28;20084;-71
2023/01/10 06:37:12;;;;;;;0.70;0.13;;;4.60;98.80;;;;;;5036922;28;20087;-71
2023/01/10 06:39:38;;;;;;;2.95;0.50;;;4.30;99.00;;;;;;5025687;28;20543;-71
2023/01/10 06:42:04;;;;;;;4.00;0.70;;;4.60;98.70;;;;;;5023638;28;20379;-71
2023/01/10 06:44:29;;;;;;;0.30;0.20;;;4.40;98.90;;;;;;5027099;28;20086;-71
2023/01/10 06:46:55;;;;;;;2.10;0.32;;;4.00;99.70;;;;;;5041106;28;20037;-71
2023/01/10 06:49:21;;;;;;;0.30;0.15;;;4.20;99.00;;;;;;5030867;28;20395;-72
2023/01/10 06:51:46;;;;;;;0.20;0.10;;;4.10;99.20;;;;;;5034730;28;20037;-71
2023/01/10 06:54:12;;;;;;;0.68;0.20;;;4.50;98.40;;;;;;5036253;28;20103;-72
2023/01/10 06:56:37;;;;;;;0.50;0.40;;;4.20;99.00;;;;;;5030181;28;20068;-72
2023/01/10 06:59:03;;;;;;;0.63;0.10;;;4.10;99.20;;;;;;5028359;28;20029;-72
2023/01/10 07:01:29;;;;;;;1.45;0.20;;;4.40;98.60;;;;;;5034318;28;21006;-72
2023/01/10 07:03:54;;;;;;;0.20;0.17;;;4.60;98.20;;;;;;5038726;28;20498;-72
2023/01/10 07:06:20;;;;;;;0.52;0.22;;;4.90;97.60;;;;;;5031703;28;20108;-72
2023/01/10 07:08:46;;;;;;;0.35;0.25;;;4.50;98.60;;;;;;5033790;28;20021;-71
2023/01/10 07:11:14;;;;;;;0.65;0.17;;;4.10;99.60;;;;;;5030429;28;20538;-72
2023/01/10 07:13:40;;;;;;;0.10;0.10;;;4.60;98.20;;;;;;5024050;28;20065;-71
2023/01/10 07:16:09;;;;;;;0.10;0.10;;;4.90;97.90;;;;;;5042709;28;20033;-72
2023/01/10 07:18:36;;;;;;;0.52;0.10;;;4.90;97.90;;;;;;5036672;28;20043;-73
2023/01/10 07:21:02;;;;;;;0.00;0.00;;;4.80;97.90;;;;;;5034404;28;20040;-72
2023/01/10 07:23:29;;;;;;;0.40;0.15;;;4.90;97.50;;;;;;5037392;28;20033;-72
2023/01/10 07:25:56;;;;;;;0.77;0.08;;;4.80;98.00;;;;;;5033842;28;20033;-72
2023/01/10 07:28:22;;;;;;;0.68;0.22;;;4.80;97.90;;;;;;5034187;28;20123;-71
2023/01/10 07:30:48;;;;;;;0.38;0.20;;;5.20;96.90;;;;;;5032383;28;20112;-72
2023/01/10 07:33:14;;;;;;;0.65;0.30;;;5.10;97.50;;;;;;5030287;28;20021;-72
2023/01/10 07:35:39;;;;;;;1.00;0.35;;;5.20;97.10;;;;;;5030499;28;20025;-72
2023/01/10 07:38:05;;;;;;;0.00;0.00;;;5.20;97.00;;;;;;5029603;28;20052;-72
2023/01/10 07:40:31;;;;;;;0.47;0.20;;;5.30;97.00;;;;;;5035733;28;20112;-73
2023/01/10 07:42:58;;;;;;;0.10;0.10;;;5.30;97.10;;;;;;5024720;28;20029;-73
2023/01/10 07:45:28;;;;;;;0.68;0.38;;;5.80;95.80;;;;;;5032196;28;20104;-73
2023/01/10 07:47:57;;;;;;;0.60;0.22;;;5.70;96.00;;;;;;5023258;28;20065;-73
2023/01/10 07:50:24;;;;;;;1.55;0.25;;;5.70;95.70;;;;;;5033987;28;20029;-73
2023/01/10 07:52:49;;;;;;;0.85;0.30;;;5.70;96.30;;;;;;5036354;28;20037;-73
2023/01/10 07:55:15;;;;;;;0.20;0.10;;;5.40;97.00;;;;;;5031819;28;20365;-73
2023/01/10 07:57:41;;;;;;;0.85;0.30;;;5.50;96.40;;;;;;5032470;28;20069;-73
2023/01/10 08:00:07;;;;;;;0.95;0.32;;;5.50;96.50;;;;;;5033491;28;20629;-72
2023/01/10 08:02:33;;;;;;;1.45;0.50;;;5.70;95.90;;;;;;5039442;28;20037;-72
2023/01/10 08:04:58;;;;;;;1.23;0.32;;;5.90;95.50;;;;;;5039029;28;20036;-73
2023/01/10 08:07:24;;;;;;;0.70;0.20;;;6.30;94.80;;;;;;5031246;28;20048;-72
2023/01/10 08:09:49;;;;;;;0.52;0.20;;;6.20;94.80;;;;;;5025921;28;20029;-73
2023/01/10 08:12:15;;;;;;;0.52;0.15;;;5.90;96.20;;;;;;5028638;28;20052;-72
2023/01/10 08:14:41;;;;;;;0.98;0.47;;;6.10;94.90;;;;;;5026448;28;20013;-73
2023/01/10 08:17:06;;;;;;;3.00;0.35;;;6.30;94.50;;;;;;5034655;28;20033;-74
2023/01/10 08:19:32;;;;;;;0.40;0.25;;;6.50;94.50;;;;;;5033804;28;20025;-75
2023/01/10 08:21:59;;;;;;;1.15;0.15;;;6.40;94.70;;;;;;5030460;28;20049;-74
2023/01/10 08:24:25;;;;;;;1.15;0.60;;;6.30;94.40;;;;;;5022233;28;20025;-74
2023/01/10 08:26:50;;;;;;;0.35;0.20;;;6.20;95.20;;;;;;5034369;28;20032;-74
2023/01/10 08:29:16;;;;;;;0.43;0.30;;;6.30;94.50;;;;;;5027561;28;20106;-72
2023/01/10 08:31:42;;;;;;;0.82;0.35;;;6.30;94.60;;;;;;5036438;28;20063;-73
2023/01/10 08:34:07;;;;;;;0.13;0.13;;;6.50;94.00;;;;;;5031037;28;20632;-72
2023/01/10 08:36:33;;;;;;;1.40;0.32;;;6.50;94.50;;;;;;5020486;28;20076;-73
2023/01/10 08:38:58;;;;;;;0.57;0.30;;;6.40;93.90;;;;;;5021220;28;20060;-73
2023/01/10 08:41:24;;;;;;;0.82;0.30;;;6.40;94.10;;;;;;5031876;28;20060;-71
2023/01/10 08:43:50;;;;;;;0.82;0.32;;;6.50;94.10;;;;;;5026708;28;20677;-72
2023/01/10 08:46:16;;;;;;;0.95;0.40;;;6.50;94.40;;;;;;5029990;28;20025;-72
2023/01/10 08:48:42;;;;;;;0.77;0.30;;;6.50;94.00;;;;;;5028340;28;20041;-71
2023/01/10 08:51:08;;;;;;;1.83;0.40;;;6.70;94.00;;;;;;5027210;28;20821;-71
2023/01/10 08:53:34;;;;;;;0.88;0.22;;;6.90;93.70;;;;;;5028013;28;20037;-73
2023/01/10 08:56:00;;;;;;;0.73;0.30;;;6.90;93.50;;;;;;5027514;28;20050;-71
2023/01/10 08:58:26;;;;;;;0.70;0.38;;;6.80;93.20;;;;;;5035434;28;20061;-71
2023/01/10 09:00:52;;;;;;;1.52;0.40;;;6.70;93.80;;;;;;5029989;28;20040;-71
2023/01/10 09:03:18;;;;;;;1.00;0.45;;;6.60;93.90;;;;;;5029837;28;20052;-71
2023/01/10 09:05:43;;;;;;;1.00;0.40;;;6.50;94.10;;;;;;5029793;28;20032;-71
2023/01/10 09:08:09;;;;;;;1.05;0.40;;;6.60;94.10;;;;;;5030880;28;20468;-70
2023/01/10 09:10:35;;;;;;;4.03;0.82;;;6.60;93.80;;;;;;5032574;28;20029;-71
2023/01/10 09:13:01;;;;;;;1.45;0.35;;;7.50;96.80;;;;;;5028859;28;20025;-71
2023/01/10 09:15:29;;;;;;;0.57;0.20;;;7.20;93.40;;;;;;5034420;28;20026;-71
2023/01/10 09:17:57;;;;;;;0.40;0.20;;;6.80;93.80;;;;;;5029085;28;20502;-71
2023/01/10 09:20:27;;;;;;;1.65;0.40;;;6.70;93.60;;;;;;5035704;28;20108;-71
2023/01/10 09:22:54;;;;;;;6.07;0.95;;;6.70;93.70;;;;;;5035720;28;20041;-71
2023/01/10 09:25:20;;;;;;;0.88;0.30;;;9.10;97.30;;;;;;5029266;28;20104;-72
2023/01/10 09:27:45;;;;;;;1.80;0.80;;;7.50;93.50;;;;;;5037418;28;20441;-71
2023/01/10 09:30:11;;;;;;;1.27;0.40;;;6.80;94.30;;;;;;5029112;28;20036;-71
2023/01/10 09:32:37;;;;;;;0.55;0.22;;;6.70;94.30;;;;;;5034805;28;20575;-71
2023/01/10 09:35:03;;;;;;;0.57;0.28;;;7.10;93.20;;;;;;5030988;28;20125;-71
2023/01/10 09:37:32;;;;;;;1.80;0.20;;;7.00;93.60;;;;;;5031909;28;20090;-71
2023/01/10 09:39:58;;;;;;;0.68;0.30;;;7.00;93.30;;;;;;5023098;28;20033;-71
2023/01/10 09:42:48;;;;;;;0.80;0.25;;;7.50;92.20;;;;;;5032534;28;20163;-71
2023/01/10 09:45:35;;;;;;;0.20;0.20;;;7.50;92.20;;;;;;5033527;28;20087;-71
2023/01/10 09:48:06;;;;;;;1.13;0.40;;;7.20;93.20;;;;;;5034101;28;20434;-71
2023/01/10 09:50:51;;;;;;;0.25;0.13;;;7.50;92.20;;;;;;5026003;28;20036;-71
2023/01/10 09:53:26;;;;;;;0.40;0.30;;;7.80;92.00;;;;;;5025810;28;20428;-71
2023/01/10 09:55:58;;;;;;;1.48;0.43;;;7.60;92.10;;;;;;5031799;28;20045;-71
2023/01/10 09:58:27;;;;;;;1.10;0.38;;;7.50;92.20;;;;;;5028532;28;20041;-71
2023/01/10 10:00:58;;;;;;;0.40;0.28;;;7.80;91.80;;;;;;5030679;28;20040;-71
2023/01/10 10:03:36;;;;;;;0.68;0.25;;;7.60;92.20;;;;;;5024268;28;20033;-71
2023/01/10 10:06:02;;;;;;;2.60;0.65;;;7.70;91.70;;;;;;5032107;28;20530;-71
2023/01/10 10:08:29;;;;;;;0.98;0.30;;;7.90;91.70;;;;;;5031719;28;20464;-70
2023/01/10 10:11:06;;;;;;;0.70;0.20;;;7.80;92.20;;;;;;5030828;28;20036;-70
2023/01/10 10:13:44;;;;;;;0.73;0.30;;;7.80;91.90;;;;;;5025818;28;20116;-70
2023/01/10 10:16:21;;;;;;;1.13;0.40;;;7.80;92.10;;;;;;5024176;28;20049;-71
2023/01/10 10:19:00;;;;;;;0.32;0.30;;;8.10;91.30;;;;;;5034181;28;20029;-70
2023/01/10 10:21:53;;;;;;;0.75;0.28;;;8.20;91.30;;;;;;5028786;28;20103;-70
2023/01/10 10:24:51;;;;;;;0.80;0.30;;;8.20;91.20;;;;;;5032780;28;20040;-71
2023/01/10 10:27:40;;;;;;;0.70;0.40;;;8.30;90.90;;;;;;5030102;28;20036;-70
2023/01/10 10:30:25;;;;;;;0.47;0.20;;;8.30;90.90;;;;;;5025624;28;20036;-70
2023/01/10 10:33:16;;;;;;;0.52;0.25;;;8.30;91.20;;;;;;5029136;28;20049;-70
2023/01/10 10:35:54;;;;;;;1.23;0.35;;;8.20;91.20;;;;;;5032411;28;20096;-70
2023/01/10 10:38:33;;;;;;;3.22;0.60;;;8.00;91.90;;;;;;5034063;28;20105;-70
2023/01/10 10:41:00;;;;;;;0.47;0.22;;;7.80;92.00;;;;;;5026471;28;20026;-70
2023/01/10 10:43:32;;;;;;;0.50;0.35;;;8.00;91.60;;;;;;5034227;28;20040;-70
2023/01/10 10:46:09;;;;;;;0.75;0.30;;;8.20;91.80;;;;;;5039668;28;20583;-70
2023/01/10 10:48:58;;;;;;;1.48;0.40;;;8.40;91.40;;;;;;5034709;28;20030;-70
2023/01/10 10:51:36;;;;;;;1.33;0.52;;;8.60;91.20;;;;;;5040611;28;20029;-70
2023/01/10 10:54:02;;;;;;;1.00;0.43;;;8.90;91.00;;;;;;5027099;28;20757;-70
2023/01/10 10:56:29;;;;;;;1.20;0.40;;;8.80;91.30;;;;;;5031828;28;20124;-70
2023/01/10 10:58:58;;;;;;;0.95;0.30;;;9.00;91.20;;;;;;5040348;28;20029;-69
2023/01/10 11:01:25;;;;;;;0.52;0.40;;;8.90;91.40;;;;;;5044470;28;20025;-69
2023/01/10 11:03:58;;;;;;;2.80;0.60;;;9.00;90.80;;;;;;5028860;28;20025;-69
2023/01/10 11:06:26;;;;;;;4.72;0.85;;;9.10;90.40;;;;;;5041224;28;20025;-69
2023/01/10 11:08:56;;;;;;;0.63;0.40;;;9.00;91.60;;;;;;5035567;28;20037;-70
2023/01/10 11:11:28;;;;;;;1.27;0.52;;;9.00;91.30;;;;;;5036671;28;20033;-69
2023/01/10 11:13:54;;;;;;;1.05;0.50;;;9.10;91.20;;;;;;5027704;28;20082;-69
2023/01/10 11:16:25;;;;;;;0.95;0.30;;;9.10;91.90;;;;;;5037819;28;20049;-70
2023/01/10 11:19:25;;;;;;;0.93;0.40;;;9.00;90.80;;;;;;5033937;28;20076;-69
2023/01/10 11:22:00;;;;;;;0.68;0.20;;;9.40;90.70;;;;;;5041679;28;20053;-69
2023/01/10 11:24:31;;;;;;;0.38;0.30;;;9.40;91.10;;;;;;5031964;28;20030;-69
2023/01/10 11:27:00;;;;;;;0.25;0.20;;;9.40;90.20;;;;;;5031370;28;20112;-69
2023/01/10 11:29:38;;;;;;;1.42;0.40;;;9.70;89.20;;;;;;5031408;28;20056;-71
2023/01/10 11:32:16;;;;;;;0.73;0.40;;;9.60;89.30;;;;;;5030498;28;20040;-71
2023/01/10 11:34:57;;;;;;;0.70;0.28;;;9.80;88.40;;;;;;5041128;28;20594;-71
2023/01/10 11:37:28;;;;;;;0.82;0.20;;;9.90;87.80;;;;;;5032210;28;20502;-72
2023/01/10 11:40:24;;;;;;;2.25;0.60;;;9.90;89.30;;;;;;5034928;28;20032;-71
2023/01/10 11:42:51;;;;;;;4.75;2.00;;;10.00;90.80;;;;;;5042143;28;20051;-71
2023/01/10 11:45:16;;;;;;;4.20;1.17;;;9.70;92.90;;;;;;5032940;28;20138;-71
2023/01/10 11:47:55;;;;;;;1.27;0.40;;;9.70;91.80;;;;;;5038814;28;20479;-71
2023/01/10 11:50:30;;;;;;;0.40;0.30;;;9.90;90.00;;;;;;5039308;28;20029;-71
2023/01/10 11:52:57;;;;;;;1.33;0.45;;;10.20;89.60;;;;;;5039894;28;20046;-71
2023/01/10 11:55:26;;;;;;;1.00;0.30;;;10.10;88.70;;;;;;5027150;28;20022;-71
2023/01/10 11:58:02;;;;;;;1.20;0.40;;;10.10;89.00;;;;;;5040190;28;20039;-71
2023/01/10 12:00:48;;;;;;;1.05;0.50;;;10.20;88.90;;;;;;5032872;28;20037;-71
2023/01/10 12:03:27;;;;;;;1.58;0.50;;;10.30;90.30;;;;;;5029855;28;20124;-72
2023/01/10 12:06:01;;;;;;;1.67;0.80;;;10.40;89.70;;;;;;5036937;28;20596;-71
2023/01/10 12:08:37;;;;;;;1.63;0.32;;;10.40;90.10;;;;;;5031919;28;20564;-71
2023/01/10 12:11:26;;;;;;;2.20;0.65;;;10.60;89.30;;;;;;5033183;28;20064;-71
2023/01/10 12:13:54;;;;;;;1.05;0.50;;;10.40;89.20;;;;;;5026024;28;20029;-72
2023/01/10 12:16:28;;;;;;;2.53;0.43;;;10.50;90.10;;;;;;5032232;28;20052;-71
2023/01/10 12:19:02;;;;;;;0.88;0.35;;;10.60;87.80;;;;;;5025292;28;20029;-71
2023/01/10 12:21:38;;;;;;;;;;;10.60;87.00;;;;;;5034247;28;20045;-70
2023/01/10 12:24:19;;;;;;;2.13;0.82;;;10.60;84.60;;;;;;5028506;28;19958;-71
2023/01/10 12:26:46;;;;;;;1.00;0.22;;;11.10;86.30;;;;;;5026954;28;20033;-71
2023/01/10 12:29:18;;;;;;;1.05;0.40;;;10.90;85.90;;;;;;5036375;28;20040;-71
2023/01/10 12:31:44;;;;;;;0.88;0.50;;;10.90;84.80;;;;;;5032354;28;20129;-71
2023/01/10 12:34:19;;;;;;;4.03;0.43;;;10.90;84.80;;;;;;5025003;28;20109;-72
2023/01/10 12:36:47;;;;;;;2.33;0.20;;;10.90;85.50;;;;;;5035683;28;20087;-71
2023/01/10 12:39:18;;;;;;;0.30;0.20;;;11.10;84.10;;;;;;5036572;28;20486;-71
2023/01/10 12:44:51;;;;;;;0.43;0.15;;;11.20;83.30;;;;;;5029095;28;20044;-71
2023/01/10 12:47:29;;;;;;;0.63;0.20;;;11.10;82.50;;;;;;5031665;28;20128;-71
2023/01/10 12:49:58;;;;;;;1.10;0.43;;;11.20;83.60;;;;;;5025299;28;20021;-71
2023/01/10 12:52:36;;;;;;;2.45;0.68;;;11.30;80.80;;;;;;5031513;28;20037;-71
2023/01/10 12:55:02;;;;;;;1.75;0.65;;;11.30;79.70;;;;;;5035850;28;20047;-71
2023/01/10 12:57:35;;;;;;;0.22;0.10;;;11.20;81.30;;;;;;5028713;28;20037;-71
2023/01/10 13:00:05;;;;;;;0.33;0.10;;;11.30;80.70;;;;;;5036515;28;20601;-72
2023/01/10 13:02:40;;;;;;;0.22;0.20;;;11.40;79.70;;;;;;5045753;28;20029;-71
2023/01/10 13:05:13;;;;;;;0.57;0.17;;;11.30;79.30;;;;;;5028589;28;20467;-72
2023/01/10 13:07:39;;;;;;;0.20;0.10;;;11.50;75.10;;;;;;5028655;28;20021;-71
2023/01/10 13:10:07;;;;;;;1.70;0.10;;;11.50;77.00;;;;;;5029652;28;20387;-71
2023/01/10 13:12:39;;;;;;;0.55;0.20;;;11.50;78.30;;;;;;5032716;28;20393;-72
2023/01/10 13:15:26;;;;;;;0.88;0.20;;;12.40;81.70;;;;;;5033384;28;20037;-71
2023/01/10 13:18:03;;;;;;;1.65;0.38;;;11.70;76.00;;;;;;5030748;28;20036;-72
2023/01/10 13:20:36;;;;;;;0.38;0.17;;;11.60;76.90;;;;;;5031907;28;20033;-71
2023/01/10 13:23:13;;;;;;;0.00;0.00;;;11.50;78.90;;;;;;5029715;28;20103;-71
2023/01/10 13:25:39;;;;;;;1.08;0.17;;;11.50;77.50;;;;;;5026819;28;20101;-71